sensor_id;sensor_type;location;lat;lon;timestamp;P1;durP1;ratioP1;P2;durP2;ratioP2
48871;SDS011;36154;51.674;7.824;2022-11-20T00:02:40;0.90;;;0.90;;
48871;SDS011;36154;51.674;7.824;2022-11-20T00:09:38;1.05;;;1.05;;
48871;SDS011;36154;51.674;7.824;2022-11-20T00:12:51;0.82;;;0.82;;
48871;SDS011;36154;51.674;7.824;2022-11-20T00:27:10;0.70;;;0.70;;
48871;SDS011;36154;51.674;7.824;2022-11-20T00:30:43;0.70;;;0.70;;
48871;SDS011;36154;51.674;7.824;2022-11-20T00:34:46;0.70;;;0.70;;
48871;SDS011;36154;51.674;7.824;2022-11-20T00:41:35;0.80;;;0.80;;
48871;SDS011;36154;51.674;7.824;2022-11-20T00:45:17;0.70;;;0.70;;
48871;SDS011;36154;51.674;7.824;2022-11-20T00:48:54;0.65;;;0.65;;
48871;SDS011;36154;51.674;7.824;2022-11-20T01:02:55;0.80;;;0.80;;
48871;SDS011;36154;51.674;7.824;2022-11-20T01:06:06;0.60;;;0.60;;
48871;SDS011;36154;51.674;7.824;2022-11-20T01:09:22;0.60;;;0.60;;
48871;SDS011;36154;51.674;7.824;2022-11-20T01:15:43;0.52;;;0.52;;
48871;SDS011;36154;51.674;7.824;2022-11-20T01:18:22;0.60;;;0.60;;
48871;SDS011;36154;51.674;7.824;2022-11-20T01:32:07;0.55;;;0.55;;
48871;SDS011;36154;51.674;7.824;2022-11-20T01:38:45;0.50;;;0.50;;
48871;SDS011;36154;51.674;7.824;2022-11-20T01:42:25;0.50;;;0.50;;
48871;SDS011;36154;51.674;7.824;2022-11-20T01:49:20;0.50;;;0.50;;
48871;SDS011;36154;51.674;7.824;2022-11-20T01:52:30;0.40;;;0.40;;
48871;SDS011;36154;51.674;7.824;2022-11-20T01:59:30;0.65;;;0.65;;
48871;SDS011;36154;51.674;7.824;2022-11-20T02:02:51;0.47;;;0.47;;
48871;SDS011;36154;51.674;7.824;2022-11-20T02:06:00;0.25;;;0.25;;
48871;SDS011;36154;51.674;7.824;2022-11-20T02:12:44;0.50;;;0.50;;
48871;SDS011;36154;51.674;7.824;2022-11-20T02:15:33;0.50;;;0.50;;
48871;SDS011;36154;51.674;7.824;2022-11-20T02:28:16;0.40;;;0.40;;
48871;SDS011;36154;51.674;7.824;2022-11-20T02:38:18;0.40;;;0.40;;
48871;SDS011;36154;51.674;7.824;2022-11-20T02:41:39;0.50;;;0.50;;
48871;SDS011;36154;51.674;7.824;2022-11-20T02:44:40;0.65;;;0.65;;
48871;SDS011;36154;51.674;7.824;2022-11-20T02:50:51;1.17;;;0.52;;
48871;SDS011;36154;51.674;7.824;2022-11-20T02:56:49;0.55;;;0.40;;
48871;SDS011;36154;51.674;7.824;2022-11-20T03:00:22;0.50;;;0.50;;
48871;SDS011;36154;51.674;7.824;2022-11-20T03:03:34;0.30;;;0.30;;
48871;SDS011;36154;51.674;7.824;2022-11-20T03:07:11;0.52;;;0.50;;
48871;SDS011;36154;51.674;7.824;2022-11-20T03:16:42;0.43;;;0.43;;
48871;SDS011;36154;51.674;7.824;2022-11-20T03:26:57;0.55;;;0.55;;
48871;SDS011;36154;51.674;7.824;2022-11-20T03:29:45;0.50;;;0.50;;
48871;SDS011;36154;51.674;7.824;2022-11-20T03:35:53;0.80;;;0.70;;
48871;SDS011;36154;51.674;7.824;2022-11-20T03:48:43;0.50;;;0.50;;
48871;SDS011;36154;51.674;7.824;2022-11-20T03:51:47;0.40;;;0.40;;
48871;SDS011;36154;51.674;7.824;2022-11-20T03:58:05;0.40;;;0.40;;
48871;SDS011;36154;51.674;7.824;2022-11-20T04:07:50;0.85;;;0.60;;
48871;SDS011;36154;51.674;7.824;2022-11-20T04:21:41;0.50;;;0.50;;
48871;SDS011;36154;51.674;7.824;2022-11-20T04:24:45;0.60;;;0.60;;
48871;SDS011;36154;51.674;7.824;2022-11-20T04:58:39;0.40;;;0.40;;
48871;SDS011;36154;51.674;7.824;2022-11-20T05:09:06;0.40;;;0.40;;
48871;SDS011;36154;51.674;7.824;2022-11-20T05:19:03;0.90;;;0.90;;
48871;SDS011;36154;51.674;7.824;2022-11-20T06:09:58;1.35;;;1.30;;
48871;SDS011;36154;51.674;7.824;2022-11-20T06:16:28;1.05;;;1.05;;
48871;SDS011;36154;51.674;7.824;2022-11-20T06:48:38;1.17;;;1.08;;
48871;SDS011;36154;51.674;7.824;2022-11-20T06:54:35;1.20;;;1.20;;
48871;SDS011;36154;51.674;7.824;2022-11-20T07:00:03;1.00;;;1.00;;
48871;SDS011;36154;51.674;7.824;2022-11-20T07:03:20;0.98;;;0.98;;
48871;SDS011;36154;51.674;7.824;2022-11-20T07:19:22;1.20;;;1.20;;
48871;SDS011;36154;51.674;7.824;2022-11-20T07:28:47;1.00;;;1.00;;
48871;SDS011;36154;51.674;7.824;2022-11-20T07:31:44;0.80;;;0.80;;
48871;SDS011;36154;51.674;7.824;2022-11-20T07:34:27;1.20;;;1.20;;
48871;SDS011;36154;51.674;7.824;2022-11-20T07:39:57;0.98;;;0.98;;
48871;SDS011;36154;51.674;7.824;2022-11-20T07:45:51;1.15;;;1.15;;
48871;SDS011;36154;51.674;7.824;2022-11-20T07:48:44;0.90;;;0.90;;
48871;SDS011;36154;51.674;7.824;2022-11-20T07:52:01;1.20;;;1.10;;
48871;SDS011;36154;51.674;7.824;2022-11-20T08:01:41;1.10;;;1.10;;
48871;SDS011;36154;51.674;7.824;2022-11-20T08:04:33;0.90;;;0.90;;
48871;SDS011;36154;51.674;7.824;2022-11-20T08:07:56;0.95;;;0.95;;
48871;SDS011;36154;51.674;7.824;2022-11-20T08:10:47;0.75;;;0.75;;
48871;SDS011;36154;51.674;7.824;2022-11-20T08:13:46;1.38;;;1.38;;
48871;SDS011;36154;51.674;7.824;2022-11-20T08:17:07;0.93;;;0.93;;
48871;SDS011;36154;51.674;7.824;2022-11-20T08:20:00;1.08;;;1.08;;
48871;SDS011;36154;51.674;7.824;2022-11-20T08:26:32;1.00;;;1.00;;
48871;SDS011;36154;51.674;7.824;2022-11-20T08:30:12;0.95;;;0.95;;
48871;SDS011;36154;51.674;7.824;2022-11-20T08:33:07;1.10;;;1.10;;
48871;SDS011;36154;51.674;7.824;2022-11-20T08:39:11;1.20;;;1.20;;
48871;SDS011;36154;51.674;7.824;2022-11-20T08:49:09;1.25;;;1.25;;
48871;SDS011;36154;51.674;7.824;2022-11-20T08:51:44;1.00;;;1.00;;
48871;SDS011;36154;51.674;7.824;2022-11-20T08:54:32;1.17;;;1.10;;
48871;SDS011;36154;51.674;7.824;2022-11-20T08:57:41;1.10;;;1.10;;
48871;SDS011;36154;51.674;7.824;2022-11-20T09:00:37;1.08;;;1.08;;
48871;SDS011;36154;51.674;7.824;2022-11-20T09:03:31;0.88;;;0.88;;
48871;SDS011;36154;51.674;7.824;2022-11-20T09:10:21;0.90;;;0.90;;
48871;SDS011;36154;51.674;7.824;2022-11-20T09:20:11;1.17;;;1.17;;
48871;SDS011;36154;51.674;7.824;2022-11-20T09:23:26;1.05;;;1.05;;
48871;SDS011;36154;51.674;7.824;2022-11-20T09:28:56;1.00;;;1.00;;
48871;SDS011;36154;51.674;7.824;2022-11-20T09:31:45;1.10;;;1.10;;
48871;SDS011;36154;51.674;7.824;2022-11-20T09:38:10;0.98;;;0.98;;
48871;SDS011;36154;51.674;7.824;2022-11-20T09:41:06;0.80;;;0.80;;
48871;SDS011;36154;51.674;7.824;2022-11-20T09:54:15;0.88;;;0.88;;
48871;SDS011;36154;51.674;7.824;2022-11-20T10:04:13;0.88;;;0.88;;
48871;SDS011;36154;51.674;7.824;2022-11-20T10:09:53;0.90;;;0.90;;
48871;SDS011;36154;51.674;7.824;2022-11-20T10:12:29;2.63;;;1.02;;
48871;SDS011;36154;51.674;7.824;2022-11-20T10:26:46;56.55;;;9.48;;
48871;SDS011;36154;51.674;7.824;2022-11-20T10:31:45;45.42;;;9.23;;
48871;SDS011;36154;51.674;7.824;2022-11-20T10:34:19;35.13;;;7.72;;
48871;SDS011;36154;51.674;7.824;2022-11-20T10:36:52;35.72;;;7.95;;
48871;SDS011;36154;51.674;7.824;2022-11-20T10:39:44;35.50;;;7.22;;
48871;SDS011;36154;51.674;7.824;2022-11-20T10:45:13;26.90;;;6.70;;
48871;SDS011;36154;51.674;7.824;2022-11-20T10:47:44;24.80;;;6.00;;
48871;SDS011;36154;51.674;7.824;2022-11-20T10:50:11;26.20;;;6.30;;
48871;SDS011;36154;51.674;7.824;2022-11-20T10:55:40;17.92;;;10.60;;
48871;SDS011;36154;51.674;7.824;2022-11-20T11:00:45;14.48;;;8.00;;
48871;SDS011;36154;51.674;7.824;2022-11-20T11:08:20;7.93;;;4.93;;
48871;SDS011;36154;51.674;7.824;2022-11-20T11:10:59;8.95;;;4.57;;
48871;SDS011;36154;51.674;7.824;2022-11-20T11:13:28;8.60;;;4.40;;
48871;SDS011;36154;51.674;7.824;2022-11-20T11:15:55;5.18;;;3.97;;
48871;SDS011;36154;51.674;7.824;2022-11-20T11:18:25;10.10;;;3.83;;
48871;SDS011;36154;51.674;7.824;2022-11-20T11:21:00;6.90;;;3.20;;
48871;SDS011;36154;51.674;7.824;2022-11-20T11:23:34;7.25;;;3.20;;
48871;SDS011;36154;51.674;7.824;2022-11-20T11:26:00;5.28;;;3.35;;
48871;SDS011;36154;51.674;7.824;2022-11-20T11:28:28;4.60;;;2.75;;
48871;SDS011;36154;51.674;7.824;2022-11-20T11:30:53;7.32;;;2.92;;
48871;SDS011;36154;51.674;7.824;2022-11-20T11:33:21;6.50;;;2.58;;
48871;SDS011;36154;51.674;7.824;2022-11-20T11:35:54;3.17;;;2.47;;
48871;SDS011;36154;51.674;7.824;2022-11-20T11:38:37;6.05;;;2.58;;
48871;SDS011;36154;51.674;7.824;2022-11-20T11:41:05;2.75;;;1.92;;
48871;SDS011;36154;51.674;7.824;2022-11-20T11:43:32;2.53;;;2.10;;
48871;SDS011;36154;51.674;7.824;2022-11-20T11:54:24;2.53;;;2.10;;
48871;SDS011;36154;51.674;7.824;2022-11-20T11:56:55;2.78;;;1.80;;
48871;SDS011;36154;51.674;7.824;2022-11-20T12:05:17;2.03;;;1.75;;
48871;SDS011;36154;51.674;7.824;2022-11-20T12:07:46;2.05;;;1.48;;
48871;SDS011;36154;51.674;7.824;2022-11-20T12:10:40;2.53;;;1.50;;
48871;SDS011;36154;51.674;7.824;2022-11-20T12:13:17;1.38;;;1.20;;
48871;SDS011;36154;51.674;7.824;2022-11-20T12:16:02;1.40;;;1.20;;
48871;SDS011;36154;51.674;7.824;2022-11-20T12:18:28;1.50;;;1.13;;
48871;SDS011;36154;51.674;7.824;2022-11-20T12:21:00;1.50;;;1.40;;
48871;SDS011;36154;51.674;7.824;2022-11-20T12:26:26;1.40;;;1.30;;
48871;SDS011;36154;51.674;7.824;2022-11-20T12:34:23;1.23;;;1.10;;
48871;SDS011;36154;51.674;7.824;2022-11-20T12:42:13;1.13;;;1.08;;
48871;SDS011;36154;51.674;7.824;2022-11-20T12:48:30;1.10;;;1.00;;
48871;SDS011;36154;51.674;7.824;2022-11-20T12:56:28;1.30;;;1.20;;
48871;SDS011;36154;51.674;7.824;2022-11-20T13:05:19;0.70;;;0.70;;
48871;SDS011;36154;51.674;7.824;2022-11-20T13:07:50;1.35;;;1.25;;
48871;SDS011;36154;51.674;7.824;2022-11-20T13:10:23;10.65;;;3.40;;
48871;SDS011;36154;51.674;7.824;2022-11-20T13:15:37;25.98;;;7.35;;
48871;SDS011;36154;51.674;7.824;2022-11-20T13:18:08;29.15;;;9.48;;
48871;SDS011;36154;51.674;7.824;2022-11-20T13:20:36;25.05;;;9.40;;
48871;SDS011;36154;51.674;7.824;2022-11-20T13:23:07;28.55;;;8.98;;
48871;SDS011;36154;51.674;7.824;2022-11-20T13:25:34;22.73;;;7.63;;
48871;SDS011;36154;51.674;7.824;2022-11-20T13:28:27;21.10;;;8.57;;
48871;SDS011;36154;51.674;7.824;2022-11-20T13:30:51;17.40;;;7.25;;
48871;SDS011;36154;51.674;7.824;2022-11-20T13:33:34;18.58;;;7.80;;
48871;SDS011;36154;51.674;7.824;2022-11-20T13:38:26;17.42;;;7.07;;
48871;SDS011;36154;51.674;7.824;2022-11-20T13:40:54;15.20;;;6.18;;
48871;SDS011;36154;51.674;7.824;2022-11-20T13:43:28;14.13;;;6.07;;
48871;SDS011;36154;51.674;7.824;2022-11-20T13:46:05;17.17;;;6.18;;
48871;SDS011;36154;51.674;7.824;2022-11-20T13:48:39;21.92;;;6.32;;
48871;SDS011;36154;51.674;7.824;2022-11-20T14:01:52;13.65;;;4.65;;
48871;SDS011;36154;51.674;7.824;2022-11-20T14:04:26;8.82;;;4.50;;
48871;SDS011;36154;51.674;7.824;2022-11-20T14:06:55;8.88;;;4.32;;
48871;SDS011;36154;51.674;7.824;2022-11-20T14:09:25;8.35;;;4.72;;
48871;SDS011;36154;51.674;7.824;2022-11-20T14:11:51;10.07;;;4.22;;
48871;SDS011;36154;51.674;7.824;2022-11-20T14:14:17;11.20;;;4.10;;
48871;SDS011;36154;51.674;7.824;2022-11-20T14:16:45;8.73;;;3.97;;
48871;SDS011;36154;51.674;7.824;2022-11-20T14:24:12;6.38;;;3.63;;
48871;SDS011;36154;51.674;7.824;2022-11-20T14:26:42;6.88;;;3.58;;
48871;SDS011;36154;51.674;7.824;2022-11-20T14:31:44;9.02;;;3.63;;
48871;SDS011;36154;51.674;7.824;2022-11-20T14:34:15;5.68;;;3.55;;
48871;SDS011;36154;51.674;7.824;2022-11-20T14:36:43;5.32;;;3.38;;
48871;SDS011;36154;51.674;7.824;2022-11-20T14:39:22;4.55;;;3.30;;
48871;SDS011;36154;51.674;7.824;2022-11-20T14:41:58;4.85;;;3.53;;
48871;SDS011;36154;51.674;7.824;2022-11-20T14:44:25;7.03;;;2.80;;
48871;SDS011;36154;51.674;7.824;2022-11-20T14:46:54;5.60;;;3.30;;
48871;SDS011;36154;51.674;7.824;2022-11-20T14:49:20;5.85;;;3.38;;
48871;SDS011;36154;51.674;7.824;2022-11-20T14:51:46;6.15;;;3.30;;
48871;SDS011;36154;51.674;7.824;2022-11-20T14:54:15;4.28;;;2.65;;
48871;SDS011;36154;51.674;7.824;2022-11-20T14:56:55;4.53;;;3.35;;
48871;SDS011;36154;51.674;7.824;2022-11-20T14:59:32;8.53;;;3.03;;
48871;SDS011;36154;51.674;7.824;2022-11-20T15:01:59;3.20;;;2.90;;
48871;SDS011;36154;51.674;7.824;2022-11-20T15:04:27;5.60;;;3.47;;
48871;SDS011;36154;51.674;7.824;2022-11-20T15:06:54;3.63;;;2.60;;
48871;SDS011;36154;51.674;7.824;2022-11-20T15:09:21;5.53;;;3.10;;
48871;SDS011;36154;51.674;7.824;2022-11-20T15:12:05;3.78;;;2.90;;
48871;SDS011;36154;51.674;7.824;2022-11-20T15:14:30;3.10;;;2.78;;
48871;SDS011;36154;51.674;7.824;2022-11-20T15:16:57;3.10;;;2.78;;
48871;SDS011;36154;51.674;7.824;2022-11-20T15:19:24;2.75;;;2.25;;
48871;SDS011;36154;51.674;7.824;2022-11-20T15:21:51;2.40;;;2.20;;
48871;SDS011;36154;51.674;7.824;2022-11-20T15:24:16;2.70;;;2.40;;
48871;SDS011;36154;51.674;7.824;2022-11-20T15:26:42;3.67;;;2.08;;
48871;SDS011;36154;51.674;7.824;2022-11-20T15:29:09;5.38;;;2.20;;
48871;SDS011;36154;51.674;7.824;2022-11-20T15:31:36;3.42;;;1.92;;
48871;SDS011;36154;51.674;7.824;2022-11-20T15:34:02;4.03;;;2.03;;
48871;SDS011;36154;51.674;7.824;2022-11-20T15:36:27;3.53;;;1.95;;
48871;SDS011;36154;51.674;7.824;2022-11-20T15:38:53;3.38;;;2.05;;
48871;SDS011;36154;51.674;7.824;2022-11-20T15:41:18;3.83;;;2.05;;
48871;SDS011;36154;51.674;7.824;2022-11-20T15:43:44;2.72;;;2.20;;
48871;SDS011;36154;51.674;7.824;2022-11-20T15:46:11;2.55;;;2.00;;
48871;SDS011;36154;51.674;7.824;2022-11-20T15:48:43;2.50;;;1.70;;
48871;SDS011;36154;51.674;7.824;2022-11-20T15:53:35;1.80;;;1.70;;
48871;SDS011;36154;51.674;7.824;2022-11-20T15:56:05;5.15;;;1.58;;
48871;SDS011;36154;51.674;7.824;2022-11-20T15:58:31;1.92;;;1.80;;
48871;SDS011;36154;51.674;7.824;2022-11-20T16:00:56;2.53;;;1.63;;
48871;SDS011;36154;51.674;7.824;2022-11-20T16:03:22;2.42;;;1.50;;
48871;SDS011;36154;51.674;7.824;2022-11-20T16:05:50;2.75;;;1.80;;
48871;SDS011;36154;51.674;7.824;2022-11-20T16:08:17;1.80;;;1.70;;
48871;SDS011;36154;51.674;7.824;2022-11-20T16:10:42;1.92;;;1.83;;
48871;SDS011;36154;51.674;7.824;2022-11-20T16:13:14;2.22;;;1.80;;
48871;SDS011;36154;51.674;7.824;2022-11-20T16:16:01;1.65;;;1.55;;
48871;SDS011;36154;51.674;7.824;2022-11-20T16:18:47;1.95;;;1.85;;
48871;SDS011;36154;51.674;7.824;2022-11-20T16:21:13;3.08;;;1.83;;
48871;SDS011;36154;51.674;7.824;2022-11-20T16:23:38;1.90;;;1.80;;
48871;SDS011;36154;51.674;7.824;2022-11-20T16:26:16;1.80;;;1.70;;
48871;SDS011;36154;51.674;7.824;2022-11-20T16:28:43;2.60;;;1.73;;
48871;SDS011;36154;51.674;7.824;2022-11-20T16:31:10;1.55;;;1.45;;
48871;SDS011;36154;51.674;7.824;2022-11-20T16:33:36;2.00;;;1.90;;
48871;SDS011;36154;51.674;7.824;2022-11-20T16:36:11;1.80;;;1.70;;
48871;SDS011;36154;51.674;7.824;2022-11-20T16:38:38;1.80;;;1.70;;
48871;SDS011;36154;51.674;7.824;2022-11-20T16:41:04;1.80;;;1.70;;
48871;SDS011;36154;51.674;7.824;2022-11-20T16:43:31;3.55;;;1.58;;
48871;SDS011;36154;51.674;7.824;2022-11-20T16:45:56;1.98;;;1.88;;
48871;SDS011;36154;51.674;7.824;2022-11-20T16:48:22;2.75;;;1.90;;
48871;SDS011;36154;51.674;7.824;2022-11-20T16:50:51;2.10;;;2.00;;
48871;SDS011;36154;51.674;7.824;2022-11-20T16:53:18;2.25;;;2.15;;
48871;SDS011;36154;51.674;7.824;2022-11-20T16:55:44;2.30;;;2.15;;
48871;SDS011;36154;51.674;7.824;2022-11-20T16:58:10;2.00;;;1.90;;
48871;SDS011;36154;51.674;7.824;2022-11-20T17:00:36;2.00;;;1.90;;
48871;SDS011;36154;51.674;7.824;2022-11-20T17:03:02;5.88;;;2.20;;
48871;SDS011;36154;51.674;7.824;2022-11-20T17:05:29;2.28;;;2.17;;
48871;SDS011;36154;51.674;7.824;2022-11-20T17:07:55;1.95;;;1.85;;
48871;SDS011;36154;51.674;7.824;2022-11-20T17:10:20;2.50;;;2.35;;
48871;SDS011;36154;51.674;7.824;2022-11-20T17:12:45;2.78;;;2.22;;
48871;SDS011;36154;51.674;7.824;2022-11-20T17:15:11;2.38;;;2.05;;
48871;SDS011;36154;51.674;7.824;2022-11-20T17:17:36;2.17;;;2.05;;
48871;SDS011;36154;51.674;7.824;2022-11-20T17:20:01;2.30;;;2.20;;
48871;SDS011;36154;51.674;7.824;2022-11-20T17:22:27;2.65;;;2.33;;
48871;SDS011;36154;51.674;7.824;2022-11-20T17:24:52;2.10;;;1.90;;
48871;SDS011;36154;51.674;7.824;2022-11-20T17:27:17;2.42;;;2.22;;
48871;SDS011;36154;51.674;7.824;2022-11-20T17:29:43;2.45;;;2.25;;
48871;SDS011;36154;51.674;7.824;2022-11-20T17:32:09;2.20;;;2.10;;
48871;SDS011;36154;51.674;7.824;2022-11-20T17:34:34;2.22;;;2.13;;
48871;SDS011;36154;51.674;7.824;2022-11-20T17:36:59;2.13;;;2.03;;
48871;SDS011;36154;51.674;7.824;2022-11-20T17:39:26;1.90;;;1.80;;
48871;SDS011;36154;51.674;7.824;2022-11-20T17:41:51;2.20;;;2.10;;
48871;SDS011;36154;51.674;7.824;2022-11-20T17:44:35;2.08;;;1.98;;
48871;SDS011;36154;51.674;7.824;2022-11-20T17:47:00;1.63;;;1.52;;
48871;SDS011;36154;51.674;7.824;2022-11-20T17:49:25;1.45;;;1.38;;
48871;SDS011;36154;51.674;7.824;2022-11-20T17:51:51;1.70;;;1.60;;
48871;SDS011;36154;51.674;7.824;2022-11-20T17:54:16;1.63;;;1.50;;
48871;SDS011;36154;51.674;7.824;2022-11-20T17:56:41;1.50;;;1.40;;
48871;SDS011;36154;51.674;7.824;2022-11-20T17:59:25;1.48;;;1.30;;
48871;SDS011;36154;51.674;7.824;2022-11-20T18:01:51;1.25;;;1.25;;
48871;SDS011;36154;51.674;7.824;2022-11-20T18:04:16;1.70;;;1.60;;
48871;SDS011;36154;51.674;7.824;2022-11-20T18:06:42;1.40;;;1.40;;
48871;SDS011;36154;51.674;7.824;2022-11-20T18:09:08;1.60;;;1.50;;
48871;SDS011;36154;51.674;7.824;2022-11-20T18:11:34;1.20;;;1.10;;
48871;SDS011;36154;51.674;7.824;2022-11-20T18:14:02;1.27;;;1.25;;
48871;SDS011;36154;51.674;7.824;2022-11-20T18:16:52;1.50;;;1.20;;
48871;SDS011;36154;51.674;7.824;2022-11-20T18:19:25;1.20;;;1.20;;
48871;SDS011;36154;51.674;7.824;2022-11-20T18:21:53;1.25;;;1.25;;
48871;SDS011;36154;51.674;7.824;2022-11-20T18:24:19;1.50;;;1.40;;
48871;SDS011;36154;51.674;7.824;2022-11-20T18:26:45;1.30;;;1.30;;
48871;SDS011;36154;51.674;7.824;2022-11-20T18:29:11;1.00;;;1.00;;
48871;SDS011;36154;51.674;7.824;2022-11-20T18:31:37;1.38;;;1.38;;
48871;SDS011;36154;51.674;7.824;2022-11-20T18:34:03;1.08;;;1.08;;
48871;SDS011;36154;51.674;7.824;2022-11-20T18:36:30;0.93;;;0.93;;
48871;SDS011;36154;51.674;7.824;2022-11-20T18:38:57;1.13;;;1.13;;
48871;SDS011;36154;51.674;7.824;2022-11-20T18:41:24;1.40;;;1.30;;
48871;SDS011;36154;51.674;7.824;2022-11-20T18:44:12;1.50;;;1.40;;
48871;SDS011;36154;51.674;7.824;2022-11-20T18:47:07;1.15;;;1.15;;
48871;SDS011;36154;51.674;7.824;2022-11-20T18:49:35;1.42;;;1.33;;
48871;SDS011;36154;51.674;7.824;2022-11-20T18:52:01;1.42;;;1.33;;
48871;SDS011;36154;51.674;7.824;2022-11-20T18:54:26;1.70;;;1.60;;
48871;SDS011;36154;51.674;7.824;2022-11-20T18:56:54;1.30;;;1.30;;
48871;SDS011;36154;51.674;7.824;2022-11-20T18:59:20;1.40;;;1.30;;
48871;SDS011;36154;51.674;7.824;2022-11-20T19:01:46;1.67;;;1.58;;
48871;SDS011;36154;51.674;7.824;2022-11-20T19:04:12;1.63;;;1.52;;
48871;SDS011;36154;51.674;7.824;2022-11-20T19:06:40;1.70;;;1.60;;
48871;SDS011;36154;51.674;7.824;2022-11-20T19:09:07;1.52;;;1.45;;
48871;SDS011;36154;51.674;7.824;2022-11-20T19:11:36;1.50;;;1.40;;
48871;SDS011;36154;51.674;7.824;2022-11-20T19:14:02;1.60;;;1.50;;
48871;SDS011;36154;51.674;7.824;2022-11-20T19:16:28;1.50;;;1.40;;
48871;SDS011;36154;51.674;7.824;2022-11-20T19:18:54;1.38;;;1.38;;
48871;SDS011;36154;51.674;7.824;2022-11-20T19:21:20;1.10;;;1.10;;
48871;SDS011;36154;51.674;7.824;2022-11-20T19:23:48;1.40;;;1.40;;
48871;SDS011;36154;51.674;7.824;2022-11-20T19:26:15;1.30;;;1.30;;
48871;SDS011;36154;51.674;7.824;2022-11-20T19:28:56;1.40;;;1.40;;
48871;SDS011;36154;51.674;7.824;2022-11-20T19:31:23;1.48;;;1.38;;
48871;SDS011;36154;51.674;7.824;2022-11-20T19:33:57;1.55;;;1.45;;
48871;SDS011;36154;51.674;7.824;2022-11-20T19:36:25;1.50;;;1.40;;
48871;SDS011;36154;51.674;7.824;2022-11-20T19:38:52;1.50;;;1.45;;
48871;SDS011;36154;51.674;7.824;2022-11-20T19:41:19;1.35;;;1.35;;
48871;SDS011;36154;51.674;7.824;2022-11-20T19:43:46;1.15;;;1.15;;
48871;SDS011;36154;51.674;7.824;2022-11-20T19:46:17;1.20;;;1.20;;
48871;SDS011;36154;51.674;7.824;2022-11-20T19:48:44;1.45;;;1.40;;
48871;SDS011;36154;51.674;7.824;2022-11-20T19:51:10;1.65;;;1.55;;
48871;SDS011;36154;51.674;7.824;2022-11-20T19:53:37;1.27;;;1.27;;
48871;SDS011;36154;51.674;7.824;2022-11-20T19:56:03;1.20;;;1.20;;
48871;SDS011;36154;51.674;7.824;2022-11-20T19:58:29;1.20;;;1.20;;
48871;SDS011;36154;51.674;7.824;2022-11-20T20:00:55;1.17;;;1.17;;
48871;SDS011;36154;51.674;7.824;2022-11-20T20:03:20;1.00;;;1.00;;
48871;SDS011;36154;51.674;7.824;2022-11-20T20:05:46;1.10;;;1.08;;
48871;SDS011;36154;51.674;7.824;2022-11-20T20:08:12;1.25;;;1.10;;
48871;SDS011;36154;51.674;7.824;2022-11-20T20:10:38;1.00;;;1.00;;
48871;SDS011;36154;51.674;7.824;2022-11-20T20:13:03;1.35;;;1.25;;
48871;SDS011;36154;51.674;7.824;2022-11-20T20:15:29;1.35;;;1.15;;
48871;SDS011;36154;51.674;7.824;2022-11-20T20:17:55;2.97;;;1.50;;
48871;SDS011;36154;51.674;7.824;2022-11-20T20:20:20;19.67;;;4.20;;
48871;SDS011;36154;51.674;7.824;2022-11-20T20:22:45;11.82;;;3.08;;
48871;SDS011;36154;51.674;7.824;2022-11-20T20:25:11;37.50;;;5.82;;
48871;SDS011;36154;51.674;7.824;2022-11-20T20:27:36;30.83;;;6.38;;
48871;SDS011;36154;51.674;7.824;2022-11-20T20:30:05;34.50;;;6.72;;
48871;SDS011;36154;51.674;7.824;2022-11-20T20:32:32;32.28;;;6.38;;
48871;SDS011;36154;51.674;7.824;2022-11-20T20:34:57;35.58;;;6.70;;
48871;SDS011;36154;51.674;7.824;2022-11-20T20:37:23;29.70;;;6.32;;
48871;SDS011;36154;51.674;7.824;2022-11-20T20:39:48;29.33;;;5.93;;
48871;SDS011;36154;51.674;7.824;2022-11-20T20:42:14;32.45;;;6.15;;
48871;SDS011;36154;51.674;7.824;2022-11-20T20:44:39;28.65;;;6.25;;
48871;SDS011;36154;51.674;7.824;2022-11-20T20:47:28;21.65;;;5.90;;
48871;SDS011;36154;51.674;7.824;2022-11-20T20:49:54;23.33;;;5.70;;
48871;SDS011;36154;51.674;7.824;2022-11-20T20:52:19;28.65;;;6.20;;
48871;SDS011;36154;51.674;7.824;2022-11-20T20:54:44;19.02;;;5.05;;
48871;SDS011;36154;51.674;7.824;2022-11-20T20:57:10;20.50;;;5.50;;
48871;SDS011;36154;51.674;7.824;2022-11-20T20:59:35;16.95;;;5.03;;
48871;SDS011;36154;51.674;7.824;2022-11-20T21:02:00;15.55;;;4.35;;
48871;SDS011;36154;51.674;7.824;2022-11-20T21:04:26;20.23;;;5.03;;
48871;SDS011;36154;51.674;7.824;2022-11-20T21:06:51;13.63;;;3.95;;
48871;SDS011;36154;51.674;7.824;2022-11-20T21:09:16;17.15;;;4.88;;
48871;SDS011;36154;51.674;7.824;2022-11-20T21:11:42;16.58;;;4.35;;
48871;SDS011;36154;51.674;7.824;2022-11-20T21:14:07;16.95;;;4.90;;
48871;SDS011;36154;51.674;7.824;2022-11-20T21:16:33;11.48;;;4.50;;
48871;SDS011;36154;51.674;7.824;2022-11-20T21:19:05;13.18;;;4.65;;
48871;SDS011;36154;51.674;7.824;2022-11-20T21:21:31;12.52;;;3.88;;
48871;SDS011;36154;51.674;7.824;2022-11-20T21:24:16;11.30;;;3.50;;
48871;SDS011;36154;51.674;7.824;2022-11-20T21:26:41;8.73;;;3.45;;
48871;SDS011;36154;51.674;7.824;2022-11-20T21:29:07;7.85;;;3.53;;
48871;SDS011;36154;51.674;7.824;2022-11-20T21:31:32;13.40;;;3.47;;
48871;SDS011;36154;51.674;7.824;2022-11-20T21:33:57;7.20;;;3.17;;
48871;SDS011;36154;51.674;7.824;2022-11-20T21:36:23;13.60;;;3.95;;
48871;SDS011;36154;51.674;7.824;2022-11-20T21:38:51;7.50;;;3.35;;
48871;SDS011;36154;51.674;7.824;2022-11-20T21:41:18;12.30;;;3.38;;
48871;SDS011;36154;51.674;7.824;2022-11-20T21:43:43;12.50;;;4.07;;
48871;SDS011;36154;51.674;7.824;2022-11-20T21:46:09;9.68;;;3.40;;
48871;SDS011;36154;51.674;7.824;2022-11-20T21:48:37;5.55;;;3.00;;
48871;SDS011;36154;51.674;7.824;2022-11-20T21:51:07;5.93;;;2.72;;
48871;SDS011;36154;51.674;7.824;2022-11-20T21:53:37;5.95;;;2.80;;
48871;SDS011;36154;51.674;7.824;2022-11-20T21:56:03;10.00;;;3.25;;
48871;SDS011;36154;51.674;7.824;2022-11-20T21:58:29;5.15;;;2.75;;
48871;SDS011;36154;51.674;7.824;2022-11-20T22:00:55;10.90;;;3.45;;
48871;SDS011;36154;51.674;7.824;2022-11-20T22:03:20;6.18;;;3.03;;
48871;SDS011;36154;51.674;7.824;2022-11-20T22:05:53;6.95;;;2.78;;
48871;SDS011;36154;51.674;7.824;2022-11-20T22:08:19;7.43;;;2.80;;
48871;SDS011;36154;51.674;7.824;2022-11-20T22:10:51;6.88;;;3.17;;
48871;SDS011;36154;51.674;7.824;2022-11-20T22:13:21;7.00;;;2.78;;
48871;SDS011;36154;51.674;7.824;2022-11-20T22:16:06;4.28;;;2.70;;
48871;SDS011;36154;51.674;7.824;2022-11-20T22:18:31;11.05;;;2.95;;
48871;SDS011;36154;51.674;7.824;2022-11-20T22:21:01;4.43;;;2.00;;
48871;SDS011;36154;51.674;7.824;2022-11-20T22:23:31;6.32;;;2.90;;
48871;SDS011;36154;51.674;7.824;2022-11-20T22:26:01;5.57;;;2.95;;
48871;SDS011;36154;51.674;7.824;2022-11-20T22:28:33;5.68;;;2.60;;
48871;SDS011;36154;51.674;7.824;2022-11-20T22:31:00;3.80;;;2.20;;
48871;SDS011;36154;51.674;7.824;2022-11-20T22:33:26;5.93;;;2.60;;
48871;SDS011;36154;51.674;7.824;2022-11-20T22:35:58;4.32;;;2.25;;
48871;SDS011;36154;51.674;7.824;2022-11-20T22:38:24;3.75;;;2.58;;
48871;SDS011;36154;51.674;7.824;2022-11-20T22:40:49;3.47;;;2.30;;
48871;SDS011;36154;51.674;7.824;2022-11-20T22:43:15;4.88;;;2.53;;
48871;SDS011;36154;51.674;7.824;2022-11-20T22:45:40;3.28;;;1.80;;
48871;SDS011;36154;51.674;7.824;2022-11-20T22:48:06;4.03;;;2.22;;
48871;SDS011;36154;51.674;7.824;2022-11-20T22:50:32;4.03;;;2.10;;
48871;SDS011;36154;51.674;7.824;2022-11-20T22:52:57;2.28;;;1.92;;
48871;SDS011;36154;51.674;7.824;2022-11-20T22:55:23;3.03;;;2.13;;
48871;SDS011;36154;51.674;7.824;2022-11-20T22:57:48;5.05;;;2.03;;
48871;SDS011;36154;51.674;7.824;2022-11-20T23:00:13;2.45;;;2.25;;
48871;SDS011;36154;51.674;7.824;2022-11-20T23:02:42;2.17;;;1.48;;
48871;SDS011;36154;51.674;7.824;2022-11-20T23:05:08;1.73;;;1.40;;
48871;SDS011;36154;51.674;7.824;2022-11-20T23:07:34;3.38;;;1.67;;